Nyk Olympus — 3EOS7 — position and weather

sailwx.info

Track history (hours):
 
Tides and Currents Weather Stations Pressure Air Temp Water Temp Dewpoint Dewpoint Depression Visibility Wind Speed Wind Dir Waves Ship Positions

Nyk Olympus

Last reported at 2016-Jan-31 15:23 UTC. Time now 2016-Feb-09 03:29 UTC.
Position N 01°16' E 103°23'.
Warning: this ship's position is 8 days out of date.

Length 335 m; draft 10.9 m.

Type: Other ship. MMSI: 372478000.

Date/timePositionNaut miles runAvg speedWind from/ knotsBaromVisibWave heightAir tempDewpointWater temp
2016-Jan-31 15:23N 01°16' E 103°23'1720.7
2016-Jan-31 14:34N 01°11' E 103°40'1212.4
2016-Jan-31 13:33N 01°14' E 103°52'2 2.3
2016-Jan-31 12:33N 01°16' E 103°50'0 0.0
2016-Jan-31 11:33N 01°16' E 103°50'0 0.0
2016-Jan-31 10:33N 01°16' E 103°50'0 0.0
2016-Jan-31 09:33N 01°16' E 103°50'0 0.0
2016-Jan-31 08:33N 01°16' E 103°50'0 0.0
2016-Jan-31 07:33N 01°16' E 103°50'0 0.0
2016-Jan-31 06:30N 01°16' E 103°50'0 0.0
2016-Jan-31 05:33N 01°16' E 103°50'0 0.0
2016-Jan-31 04:33N 01°16' E 103°50'0 0.0
2016-Jan-31 03:33N 01°16' E 103°50'0 0.0
2016-Jan-31 02:33N 01°16' E 103°50'0 0.0
2016-Jan-31 01:33N 01°16' E 103°50'0 0.1
2016-Jan-31 00:32N 01°16' E 103°50'0 0.1
2016-Jan-30 23:32N 01°16' E 103°50'0 0.0
2016-Jan-30 22:33N 01°16' E 103°50'0 0.0
2016-Jan-30 21:33N 01°16' E 103°50'0 0.0
2016-Jan-30 20:33N 01°16' E 103°50'0 0.0
2016-Jan-30 19:33N 01°16' E 103°50'0 0.0
2016-Jan-30 18:33N 01°16' E 103°50'0 0.0
2016-Jan-30 17:33N 01°16' E 103°50'2 1.7
2016-Jan-30 16:33N 01°15' E 103°52'6 5.7
2016-Jan-30 15:33N 01°15' E 103°57'8 8.1
2016-Jan-30 14:33N 01°16' E 104°05'1010.3
2016-Jan-30 13:32N 01°18' E 104°15'  
2016-Jan-27 12:33N 22°01' E 114°24'3415.0
2016-Jan-27 10:18N 22°34' E 114°17'1 0.3
2016-Jan-27 07:04N 22°34' E 114°16'0 0.0
2016-Jan-27 05:16N 22°34' E 114°16'0 0.1
2016-Jan-27 04:28N 22°34' E 114°16'0 0.0
2016-Jan-27 03:28N 22°34' E 114°16'0 0.0
2016-Jan-26 22:22N 22°34' E 114°16'0 0.0
2016-Jan-26 21:28N 22°34' E 114°16'18 0.9
2016-Jan-26 01:03N 22°24' E 114°32'25 1.1
2016-Jan-25 01:33N 22°16' E 114°06'10 8.9
2016-Jan-25 00:25N 22°21' E 113°57'5 0.3
2016-Jan-24 04:05N 22°21' E 114°02'611.3
2016-Jan-24 03:33N 22°17' E 114°06'9 8.7
2016-Jan-24 02:28N 22°10' E 114°13'6 6.8
2016-Jan-24 01:33N 22°08' E 114°20'7 6.7
2016-Jan-24 00:33N 22°07' E 114°27'4 0.2
2016-Jan-22 19:19N 22°04' E 114°30'0 0.0
2016-Jan-22 18:28N 22°04' E 114°30'26 9.1
2016-Jan-22 15:34N 22°17' E 114°06'4 3.2
2016-Jan-22 14:27N 22°21' E 114°07'0 0.0
2016-Jan-22 11:33N 22°21' E 114°07'0 0.0
2016-Jan-22 04:15N 22°21' E 114°07'0 0.0
2016-Jan-22 03:27N 22°21' E 114°07'0 0.0
2016-Jan-22 02:13N 22°21' E 114°07'2 3.0
2016-Jan-22 01:34N 22°19' E 114°06'1110.6
2016-Jan-22 00:31N 22°10' E 114°13'1111.5
2016-Jan-21 23:32N 22°07' E 114°25'1211.8
2016-Jan-21 22:33N 21°55' E 114°23'1311.5
2016-Jan-21 21:26N 21°42' E 114°21'  
Track history (hours):
 
Tides and Currents Weather Stations Pressure Air Temp Water Temp Dewpoint Dewpoint Depression Visibility Wind Speed Wind Dir Waves Ship Positions

Nyk Olympus

Last reported at 2016-Jan-31 15:23 UTC. Time now 2016-Feb-09 03:29 UTC.
Position N 01°16' E 103°23'.
Warning: this ship's position is 8 days out of date.

Length 335 m; draft 10.9 m.

Type: Other ship. MMSI: 372478000.

Date/timePositionNaut miles runAvg speedWind from/ knotsBaromVisibWave heightAir tempDewpointWater temp
2016-Jan-31 15:23N 01°16' E 103°23'1720.7
2016-Jan-31 14:34N 01°11' E 103°40'1212.4
2016-Jan-31 13:33N 01°14' E 103°52'2 2.3
2016-Jan-31 12:33N 01°16' E 103°50'0 0.0
2016-Jan-31 11:33N 01°16' E 103°50'0 0.0
2016-Jan-31 10:33N 01°16' E 103°50'0 0.0
2016-Jan-31 09:33N 01°16' E 103°50'0 0.0
2016-Jan-31 08:33N 01°16' E 103°50'0 0.0
2016-Jan-31 07:33N 01°16' E 103°50'0 0.0
2016-Jan-31 06:30N 01°16' E 103°50'0 0.0
2016-Jan-31 05:33N 01°16' E 103°50'0 0.0
2016-Jan-31 04:33N 01°16' E 103°50'0 0.0
2016-Jan-31 03:33N 01°16' E 103°50'0 0.0
2016-Jan-31 02:33N 01°16' E 103°50'0 0.0
2016-Jan-31 01:33N 01°16' E 103°50'0 0.1
2016-Jan-31 00:32N 01°16' E 103°50'0 0.1
2016-Jan-30 23:32N 01°16' E 103°50'0 0.0
2016-Jan-30 22:33N 01°16' E 103°50'0 0.0
2016-Jan-30 21:33N 01°16' E 103°50'0 0.0
2016-Jan-30 20:33N 01°16' E 103°50'0 0.0
2016-Jan-30 19:33N 01°16' E 103°50'0 0.0
2016-Jan-30 18:33N 01°16' E 103°50'0 0.0
2016-Jan-30 17:33N 01°16' E 103°50'2 1.7
2016-Jan-30 16:33N 01°15' E 103°52'6 5.7
2016-Jan-30 15:33N 01°15' E 103°57'8 8.1
2016-Jan-30 14:33N 01°16' E 104°05'1010.3
2016-Jan-30 13:32N 01°18' E 104°15'  
2016-Jan-27 12:33N 22°01' E 114°24'3415.0
2016-Jan-27 10:18N 22°34' E 114°17'1 0.3
2016-Jan-27 07:04N 22°34' E 114°16'0 0.0
2016-Jan-27 05:16N 22°34' E 114°16'0 0.1
2016-Jan-27 04:28N 22°34' E 114°16'0 0.0
2016-Jan-27 03:28N 22°34' E 114°16'0 0.0
2016-Jan-26 22:22N 22°34' E 114°16'0 0.0
2016-Jan-26 21:28N 22°34' E 114°16'18 0.9
2016-Jan-26 01:03N 22°24' E 114°32'25 1.1
2016-Jan-25 01:33N 22°16' E 114°06'10 8.9
2016-Jan-25 00:25N 22°21' E 113°57'5 0.3
2016-Jan-24 04:05N 22°21' E 114°02'611.3
2016-Jan-24 03:33N 22°17' E 114°06'9 8.7
2016-Jan-24 02:28N 22°10' E 114°13'6 6.8
2016-Jan-24 01:33N 22°08' E 114°20'7 6.7
2016-Jan-24 00:33N 22°07' E 114°27'4 0.2
2016-Jan-22 19:19N 22°04' E 114°30'0 0.0
2016-Jan-22 18:28N 22°04' E 114°30'26 9.1
2016-Jan-22 15:34N 22°17' E 114°06'4 3.2
2016-Jan-22 14:27N 22°21' E 114°07'0 0.0
2016-Jan-22 11:33N 22°21' E 114°07'0 0.0
2016-Jan-22 04:15N 22°21' E 114°07'0 0.0
2016-Jan-22 03:27N 22°21' E 114°07'0 0.0
2016-Jan-22 02:13N 22°21' E 114°07'2 3.0
2016-Jan-22 01:34N 22°19' E 114°06'1110.6
2016-Jan-22 00:31N 22°10' E 114°13'1111.5
2016-Jan-21 23:32N 22°07' E 114°25'1211.8
2016-Jan-21 22:33N 21°55' E 114°23'1311.5
2016-Jan-21 21:26N 21°42' E 114°21'  

Dump ship's entire track history